ベロオリゾンテ の空港の天気 - METARとTAF

タンクレド・ネヴェス国際空港 ( SBCF / CNF ) - ブラジル ミナスジェライス州ベロオリゾンテ
飛行場実況気象(Metar)
観測時間12/14 04:00 BRST (12/14 06:00 UTC)
風向・風速静穏 0m/s
視程10km以上
天気現象
なし
気温20℃
湿度78%
気圧1019hPa
METARSBCF 140600Z 00000KT CAVOK 20/16 Q1019
過去の天気等 Google飛行場航空写真 Wunderground天気予報

過去48時間のMETAR

飛行場予報(TAF)
発表時間: 12/14 00:00 BRST (12/14 02:00 UTC)
予報対象時間: 14日4時 BRST ~ 15日4時 BRST
風向・風速南南東 3m/s
視程10km以上
なし
14日10時 BRST ~ 14日12時 BRST に徐々に
風向・風速北北東 3m/s
視程7000m
全天の4割程度の雲 雲底高度 1220m
14日15時 BRST から 確率 30% で
全天の8割程度の雲 雲底高度 1220m
14日16時 BRST ~ 14日18時 BRST に徐々に
風向・風速北北西 3m/s
14日22時 BRST ~ 14日24時 BRST に徐々に
風向・風速南東 3m/s
視程10km以上
なし
TAF SBCF 140200Z 1406/1506 15005KT CAVOK TN18/1408Z TX29/1417Z
BECMG 1412/1414 02005KT 7000 SCT040
PROB30 1417/1418 BKN040
BECMG 1418/1420 34005KT
BECMG 1500/1502 14005KT CAVOK RMK PDE